Time;durP1;ratioP1;P1;durP2;ratioP2;P2;SDS_P1;SDS_P2;PMS_P1;PMS_P2;Temp;Humidity;BMP_temperature;BMP_pressure;BME280_temperature;BME280_humidity;BME280_pressure;Samples;Min_cycle;Max_cycle;Signal;HPM_P1;HPM_P2
2022/04/02 00:01:56;;;;;;;28.08;19.80;;;2.50;99.90;;;;;;5073727;28;20220;-68
2022/04/02 00:04:23;;;;;;;24.83;16.88;;;2.60;99.90;;;;;;5073483;28;20297;-68
2022/04/02 00:06:50;;;;;;;29.02;20.27;;;2.60;99.90;;;;;;5073459;28;20297;-68
2022/04/02 00:09:18;;;;;;;29.77;20.40;;;2.60;99.90;;;;;;5073453;28;20230;-68
2022/04/02 00:11:45;;;;;;;30.92;21.33;;;2.50;99.90;;;;;;5073416;28;20203;-68
2022/04/02 00:14:12;;;;;;;31.75;20.70;;;2.50;99.90;;;;;;5073167;28;20218;-68
2022/04/02 00:16:40;;;;;;;23.33;13.20;;;2.50;99.90;;;;;;5073484;28;20208;-68
2022/04/02 00:19:07;;;;;;;30.90;21.50;;;2.40;99.90;;;;;;5073526;28;20261;-68
2022/04/02 00:21:34;;;;;;;33.05;20.80;;;2.40;99.90;;;;;;5073311;28;20257;-68
2022/04/02 00:24:01;;;;;;;31.23;21.30;;;2.30;99.90;;;;;;5073266;28;20203;-68
2022/04/02 00:26:29;;;;;;;29.65;20.75;;;2.40;99.90;;;;;;5073403;28;20664;-69
2022/04/02 00:28:56;;;;;;;31.67;21.17;;;2.40;99.90;;;;;;5073326;28;20234;-68
2022/04/02 00:31:23;;;;;;;31.65;21.13;;;2.50;99.90;;;;;;5073394;28;20241;-69
2022/04/02 00:33:51;;;;;;;29.38;21.05;;;2.40;99.90;;;;;;5072980;28;20229;-69
2022/04/02 00:36:20;;;;;;;31.13;21.73;;;2.40;99.90;;;;;;5073237;28;20211;-69
2022/04/02 00:38:47;;;;;;;30.00;21.20;;;2.40;99.90;;;;;;5073308;28;20229;-68
2022/04/02 00:41:15;;;;;;;30.90;21.55;;;2.50;99.90;;;;;;5073364;28;20206;-69
2022/04/02 00:43:56;;;;;;;31.35;21.45;;;2.50;99.90;;;;;;5073030;28;20203;-68
2022/04/02 00:46:23;;;;;;;31.55;22.20;;;2.40;99.90;;;;;;5073275;28;20212;-68
2022/04/02 00:48:50;;;;;;;32.10;23.48;;;2.20;99.90;;;;;;5073190;28;20218;-68
2022/04/02 00:51:18;;;;;;;34.92;21.92;;;2.10;99.90;;;;;;5073296;28;20260;-68
2022/04/02 00:53:49;;;;;;;32.47;22.00;;;2.10;99.90;;;;;;5072759;28;20708;-68
2022/04/02 00:56:16;;;;;;;31.88;23.08;;;2.20;99.90;;;;;;5073185;28;20194;-68
2022/04/02 00:58:45;;;;;;;33.35;23.00;;;2.20;99.90;;;;;;5073058;28;20244;-68
2022/04/02 01:01:12;;;;;;;29.88;20.45;;;2.30;99.90;;;;;;5073184;28;20268;-68
2022/04/02 01:03:39;;;;;;;34.63;23.33;;;2.20;99.90;;;;;;5072679;28;20680;-68
2022/04/02 01:06:08;;;;;;;31.35;22.15;;;2.30;99.90;;;;;;5073286;28;20627;-68
2022/04/02 01:08:35;;;;;;;33.05;23.30;;;2.30;99.90;;;;;;5072967;28;20599;-68
2022/04/02 01:11:03;;;;;;;31.67;22.27;;;2.30;99.90;;;;;;5073070;28;20207;-68
2022/04/02 01:13:30;;;;;;;35.67;22.95;;;2.40;99.90;;;;;;5072770;28;20317;-68
2022/04/02 01:15:58;;;;;;;31.75;23.38;;;2.20;99.90;;;;;;5073019;28;20199;-68
2022/04/02 01:18:25;;;;;;;34.38;23.00;;;2.20;99.90;;;;;;5072898;28;20229;-68
2022/04/02 01:20:53;;;;;;;34.72;23.80;;;2.20;99.90;;;;;;5073032;28;20207;-68
2022/04/02 01:23:28;;;;;;;34.78;22.98;;;2.10;99.90;;;;;;5072713;28;20203;-68
2022/04/02 01:25:56;;;;;;;33.70;22.42;;;2.20;99.90;;;;;;5076561;28;20202;-68
2022/04/02 01:28:23;;;;;;;31.63;22.73;;;2.30;99.90;;;;;;5076237;28;20215;-68
2022/04/02 01:30:50;;;;;;;31.95;22.10;;;2.40;99.90;;;;;;5076556;28;20694;-69
2022/04/02 01:33:17;;;;;;;32.13;21.50;;;2.20;99.90;;;;;;5076077;28;20702;-69
2022/04/02 01:35:44;;;;;;;32.75;22.92;;;2.20;99.90;;;;;;5076280;28;20252;-69
2022/04/02 01:38:11;;;;;;;32.72;22.20;;;2.20;99.90;;;;;;5076372;28;20206;-69
2022/04/02 01:40:39;;;;;;;33.58;23.10;;;2.20;99.90;;;;;;5076275;28;20222;-69
2022/04/02 01:43:06;;;;;;;31.83;21.48;;;2.10;99.90;;;;;;5075917;28;20733;-68
2022/04/02 01:45:33;;;;;;;32.40;21.35;;;2.20;99.90;;;;;;5076225;28;20206;-69
2022/04/02 01:47:59;;;;;;;32.35;22.05;;;2.30;99.90;;;;;;5076209;28;20736;-69
2022/04/02 01:50:26;;;;;;;30.48;22.52;;;2.10;99.90;;;;;;5075972;28;20700;-69
2022/04/02 01:52:53;;;;;;;31.23;23.23;;;2.20;99.90;;;;;;5076007;28;20230;-69
2022/04/02 01:55:20;;;;;;;29.98;21.45;;;2.10;99.90;;;;;;5075884;28;20211;-68
2022/04/02 01:57:49;;;;;;;30.92;20.98;;;2.10;99.90;;;;;;5075849;28;20199;-68
2022/04/02 02:00:16;;;;;;;28.98;20.50;;;2.10;99.90;;;;;;5075937;28;20219;-68
2022/04/02 02:02:43;;;;;;;33.28;20.73;;;2.10;99.90;;;;;;5075799;28;20661;-68
2022/04/02 02:05:11;;;;;;;31.25;21.15;;;2.20;99.90;;;;;;5075699;28;20297;-68
2022/04/02 02:07:38;;;;;;;32.10;21.70;;;2.30;99.90;;;;;;5075813;28;20199;-68
2022/04/02 02:10:05;;;;;;;32.22;21.10;;;2.30;99.90;;;;;;5075812;28;20218;-68
2022/04/02 02:12:33;;;;;;;28.27;20.42;;;2.40;99.90;;;;;;5075641;28;20219;-68
2022/04/02 02:15:01;;;;;;;28.30;20.33;;;2.40;99.90;;;;;;5075441;28;20207;-68
2022/04/02 02:17:28;;;;;;;28.40;21.65;;;2.60;99.90;;;;;;5075615;28;20628;-68
2022/04/02 02:19:55;;;;;;;26.60;20.60;;;2.50;99.90;;;;;;5075622;28;20309;-68
2022/04/02 02:22:22;;;;;;;26.27;19.10;;;2.50;99.90;;;;;;5075373;28;20665;-68
2022/04/02 02:24:48;;;;;;;28.58;20.23;;;2.50;99.90;;;;;;5075335;28;20199;-68
2022/04/02 02:27:15;;;;;;;27.17;20.50;;;2.30;99.90;;;;;;5075196;28;20217;-68
2022/04/02 02:29:42;;;;;;;30.30;20.83;;;2.30;99.90;;;;;;5075201;28;20233;-68
2022/04/02 02:32:10;;;;;;;25.98;19.02;;;2.30;99.90;;;;;;5075383;28;20276;-68
2022/04/02 02:37:21;;;;;;;28.27;20.08;;;2.30;99.90;;;;;;5074573;28;20198;-68
2022/04/02 02:39:48;;;;;;;26.73;19.55;;;2.30;99.90;;;;;;5074852;28;20288;-68
2022/04/02 02:42:15;;;;;;;25.23;19.45;;;2.30;99.90;;;;;;5075106;28;20232;-68
2022/04/02 02:44:42;;;;;;;26.55;19.40;;;2.30;99.90;;;;;;5074981;28;20198;-68
2022/04/02 02:47:11;;;;;;;28.75;19.80;;;2.30;99.90;;;;;;5075042;28;20611;-68
2022/04/02 02:49:38;;;;;;;30.02;20.75;;;2.20;99.90;;;;;;5074950;28;20314;-68
2022/04/02 02:52:06;;;;;;;24.95;17.13;;;2.20;99.90;;;;;;5074811;28;20656;-68
2022/04/02 02:54:33;;;;;;;25.30;18.50;;;2.30;99.90;;;;;;5074690;28;20227;-68
2022/04/02 02:57:00;;;;;;;25.88;18.10;;;2.20;99.90;;;;;;5074808;28;20210;-68
2022/04/02 02:59:26;;;;;;;25.30;17.85;;;2.20;99.90;;;;;;5074794;28;20645;-68
2022/04/02 03:01:53;;;;;;;25.25;18.33;;;2.20;99.90;;;;;;5074646;28;20206;-68
2022/04/02 03:04:23;;;;;;;35.38;19.45;;;2.30;99.90;;;;;;5074558;28;20201;-68
2022/04/02 03:06:50;;;;;;;22.92;17.85;;;2.20;99.90;;;;;;5074574;28;20203;-68
2022/04/02 03:09:17;;;;;;;25.73;18.98;;;2.20;99.90;;;;;;5074537;28;20302;-68
2022/04/02 03:11:44;;;;;;;23.35;17.45;;;2.30;99.90;;;;;;5074295;28;20209;-68
2022/04/02 03:14:10;;;;;;;23.70;19.17;;;2.30;99.90;;;;;;5074149;28;20703;-68
2022/04/02 03:16:38;;;;;;;25.02;17.52;;;2.20;99.90;;;;;;5074305;28;20248;-68
2022/04/02 03:19:06;;;;;;;21.25;16.67;;;2.20;99.90;;;;;;5074156;28;20229;-68
2022/04/02 03:21:34;;;;;;;21.85;17.00;;;2.30;99.90;;;;;;5074518;28;20222;-68
2022/04/02 03:24:02;;;;;;;24.00;17.02;;;2.10;99.90;;;;;;5073958;28;20230;-68
2022/04/02 03:26:29;;;;;;;21.55;16.42;;;2.10;99.90;;;;;;5074310;28;20214;-68
2022/04/02 03:28:56;;;;;;;22.92;16.98;;;2.20;99.90;;;;;;5073915;28;20659;-68
2022/04/02 03:31:23;;;;;;;21.33;15.80;;;2.30;99.90;;;;;;5074487;28;20304;-68
2022/04/02 03:33:50;;;;;;;22.10;15.75;;;2.30;99.90;;;;;;5073831;28;20219;-68
2022/04/02 03:36:17;;;;;;;21.67;15.05;;;2.40;99.90;;;;;;5074093;28;20298;-68
2022/04/02 03:38:45;;;;;;;23.20;16.65;;;2.40;99.90;;;;;;5073939;28;20724;-68
2022/04/02 03:41:13;;;;;;;23.40;18.70;;;2.20;99.90;;;;;;5074028;28;20561;-68
2022/04/02 03:43:40;;;;;;;22.27;14.32;;;2.10;99.90;;;;;;5073737;28;20198;-68
2022/04/02 03:48:51;;;;;;;23.75;16.75;;;1.80;99.90;;;;;;5073762;28;20603;-68
2022/04/02 03:51:18;;;;;;;26.38;14.93;;;1.90;99.90;;;;;;5073908;28;20212;-68
2022/04/02 03:53:46;;;;;;;21.23;14.65;;;1.80;99.90;;;;;;5073657;28;20288;-68
2022/04/02 03:56:13;;;;;;;21.05;15.98;;;1.90;99.90;;;;;;5073818;28;20226;-68
2022/04/02 03:58:40;;;;;;;21.70;15.20;;;2.00;99.90;;;;;;5073715;28;20305;-68
2022/04/02 04:01:07;;;;;;;20.23;13.90;;;2.00;99.90;;;;;;5073874;28;20648;-68
2022/04/02 04:03:33;;;;;;;20.48;13.90;;;1.90;99.90;;;;;;5073379;28;20240;-68
2022/04/02 04:06:01;;;;;;;21.13;13.40;;;1.80;99.90;;;;;;5073467;28;20754;-68
2022/04/02 04:08:28;;;;;;;19.17;13.55;;;1.70;99.90;;;;;;5073597;28;20203;-68
2022/04/02 04:10:56;;;;;;;19.92;13.25;;;1.80;99.90;;;;;;5073706;28;20298;-68
2022/04/02 04:13:23;;;;;;;18.48;13.35;;;1.90;99.90;;;;;;5073353;28;20266;-68
2022/04/02 04:15:50;;;;;;;19.77;13.30;;;1.90;99.90;;;;;;5073384;28;20209;-68
2022/04/02 04:18:17;;;;;;;18.73;12.82;;;1.90;99.90;;;;;;5073510;28;20213;-68
2022/04/02 04:20:43;;;;;;;29.48;14.60;;;1.90;99.90;;;;;;5073236;28;20310;-68
2022/04/02 04:23:10;;;;;;;15.32;12.23;;;1.80;99.90;;;;;;5073407;28;20305;-68
2022/04/02 04:25:37;;;;;;;19.75;13.07;;;1.80;99.90;;;;;;5073397;28;20293;-68
2022/04/02 04:28:05;;;;;;;18.90;11.90;;;1.90;99.90;;;;;;5073217;28;20304;-68
2022/04/02 04:30:34;;;;;;;18.20;13.02;;;1.80;99.90;;;;;;5073393;28;20293;-68
2022/04/02 04:33:02;;;;;;;17.02;13.18;;;1.90;99.90;;;;;;5072922;28;20260;-68
2022/04/02 04:35:29;;;;;;;18.08;12.20;;;1.90;99.90;;;;;;5073179;28;20248;-68
2022/04/02 04:37:56;;;;;;;18.83;13.18;;;2.00;99.90;;;;;;5073380;28;20207;-68
2022/04/02 04:40:22;;;;;;;19.00;13.45;;;2.10;99.90;;;;;;5073380;28;20310;-68
2022/04/02 04:42:49;;;;;;;16.30;11.90;;;2.30;99.90;;;;;;5073248;28;20209;-68
2022/04/02 04:45:17;;;;;;;17.38;12.13;;;2.20;99.90;;;;;;5073117;28;20285;-68
2022/04/02 04:47:47;;;;;;;18.05;13.27;;;2.30;99.90;;;;;;5073288;28;20209;-68
2022/04/02 04:50:14;;;;;;;16.98;13.02;;;2.30;99.90;;;;;;5073266;28;20233;-68
2022/04/02 04:52:41;;;;;;;20.35;16.23;;;2.40;99.90;;;;;;5073114;28;20715;-68
2022/04/02 04:55:09;;;;;;;21.33;14.10;;;2.30;99.90;;;;;;5072988;28;20226;-68
2022/04/02 04:57:36;;;;;;;23.10;14.88;;;2.20;99.90;;;;;;5073151;28;20210;-68
2022/04/02 05:00:05;;;;;;;21.90;15.38;;;2.10;99.90;;;;;;5075435;28;20628;-68
2022/04/02 05:02:35;;;;;;;22.88;15.25;;;2.10;99.90;;;;;;5077045;28;20302;-68
2022/04/02 05:05:02;;;;;;;21.85;14.35;;;2.10;99.90;;;;;;5076924;28;20199;-68
2022/04/02 05:07:29;;;;;;;21.77;15.85;;;2.00;99.90;;;;;;5076960;28;20305;-68
2022/04/02 05:09:57;;;;;;;25.73;16.05;;;2.00;99.90;;;;;;5077433;28;20231;-68
2022/04/02 05:12:24;;;;;;;21.67;17.08;;;2.00;99.90;;;;;;5076842;28;20234;-68
2022/04/02 05:14:51;;;;;;;21.00;15.85;;;1.90;99.90;;;;;;5076558;28;20229;-68
2022/04/02 05:17:18;;;;;;;24.30;16.00;;;1.80;99.90;;;;;;5076581;28;20202;-68
2022/04/02 05:19:46;;;;;;;21.60;15.25;;;1.80;99.90;;;;;;5076693;28;20227;-68
2022/04/02 05:22:13;;;;;;;25.42;16.45;;;1.90;99.90;;;;;;5076704;28;20203;-68
2022/04/02 05:24:40;;;;;;;24.23;16.48;;;1.80;99.90;;;;;;5076275;28;20225;-68
2022/04/02 05:27:07;;;;;;;24.63;16.35;;;1.90;99.90;;;;;;5076176;28;20751;-68
2022/04/02 05:29:34;;;;;;;22.77;15.60;;;1.90;99.90;;;;;;5077156;28;20233;-68
2022/04/02 05:32:00;;;;;;;22.73;17.40;;;1.80;99.90;;;;;;5076508;28;20620;-68
2022/04/02 05:34:27;;;;;;;22.77;16.73;;;1.80;99.90;;;;;;5076281;28;20223;-68
2022/04/02 05:36:55;;;;;;;24.00;16.30;;;1.60;99.90;;;;;;5076448;28;20202;-68
2022/04/02 05:39:22;;;;;;;24.42;17.88;;;1.50;99.90;;;;;;5076131;28;20261;-68
2022/04/02 05:41:49;;;;;;;21.90;15.70;;;1.40;99.90;;;;;;5076305;28;20297;-68
2022/04/02 05:44:16;;;;;;;23.23;16.58;;;1.40;99.90;;;;;;5075904;28;20199;-68
2022/04/02 05:46:43;;;;;;;24.67;16.55;;;1.50;99.90;;;;;;5076224;28;20313;-68
2022/04/02 05:49:11;;;;;;;28.15;16.85;;;1.60;99.90;;;;;;5076059;28;20219;-69
2022/04/02 05:51:38;;;;;;;21.42;15.68;;;1.80;99.90;;;;;;5076212;28;20203;-68
2022/04/02 05:54:06;;;;;;;23.10;16.08;;;1.80;99.90;;;;;;5075573;28;20223;-68
2022/04/02 05:56:34;;;;;;;23.05;17.80;;;1.70;99.90;;;;;;5076067;28;20290;-68
2022/04/02 05:59:02;;;;;;;23.50;15.75;;;1.70;99.90;;;;;;5075761;28;20697;-68
2022/04/02 06:01:29;;;;;;;24.13;17.63;;;1.50;99.90;;;;;;5076062;28;20202;-68
2022/04/02 06:03:56;;;;;;;23.35;16.27;;;1.40;99.90;;;;;;5075582;28;20198;-68
2022/04/02 06:06:23;;;;;;;22.08;16.35;;;1.50;99.90;;;;;;5075862;28;20231;-68
2022/04/02 06:08:50;;;;;;;21.55;15.52;;;1.70;99.90;;;;;;5075519;28;20587;-68
2022/04/02 06:11:18;;;;;;;20.83;16.80;;;1.70;99.90;;;;;;5075231;28;20203;-68
2022/04/02 06:13:45;;;;;;;20.23;14.82;;;1.60;99.90;;;;;;5075240;28;20225;-68
2022/04/02 06:16:12;;;;;;;20.45;14.55;;;1.50;99.90;;;;;;5075730;28;20264;-68
2022/04/02 06:18:39;;;;;;;21.40;14.55;;;1.60;99.90;;;;;;5075511;28;20728;-68
2022/04/02 06:21:05;;;;;;;20.02;14.82;;;1.80;99.90;;;;;;5075563;28;20297;-68
2022/04/02 06:23:33;;;;;;;19.33;15.02;;;1.50;99.90;;;;;;5075387;28;20209;-68
2022/04/02 06:26:00;;;;;;;18.60;13.50;;;1.60;99.90;;;;;;5075537;28;20280;-68
2022/04/02 06:28:28;;;;;;;18.00;14.85;;;1.70;99.90;;;;;;5075169;28;20219;-68
2022/04/02 06:30:56;;;;;;;20.80;14.60;;;1.60;99.90;;;;;;5075506;28;20202;-68
2022/04/02 06:33:22;;;;;;;19.35;14.00;;;1.60;99.90;;;;;;5075180;28;20576;-68
2022/04/02 06:35:49;;;;;;;21.40;14.63;;;1.70;99.90;;;;;;5075208;28;20697;-68
2022/04/02 06:38:16;;;;;;;20.55;14.70;;;1.60;99.90;;;;;;5075272;28;20207;-68
2022/04/02 06:40:43;;;;;;;18.65;14.15;;;1.40;99.90;;;;;;5075242;28;20622;-68
2022/04/02 06:43:10;;;;;;;21.00;15.00;;;1.50;99.90;;;;;;5075027;28;20542;-68
2022/04/02 06:45:38;;;;;;;18.77;15.43;;;1.60;99.90;;;;;;5074897;28;20244;-68
2022/04/02 06:48:05;;;;;;;21.08;13.95;;;1.60;99.90;;;;;;5075073;28;20569;-68
2022/04/02 06:50:32;;;;;;;18.75;14.23;;;1.70;99.90;;;;;;5075046;28;20252;-68
2022/04/02 06:52:59;;;;;;;18.77;13.32;;;1.80;99.90;;;;;;5074865;28;20309;-68
2022/04/02 06:55:26;;;;;;;18.73;14.07;;;1.70;99.90;;;;;;5074687;28;20229;-68
2022/04/02 06:57:55;;;;;;;14.75;11.00;;;1.90;99.90;;;;;;5074884;28;20198;-68
2022/04/02 07:00:22;;;;;;;18.48;14.15;;;2.00;99.90;;;;;;5074792;28;20309;-68
2022/04/02 07:02:50;;;;;;;16.17;11.57;;;2.10;99.90;;;;;;5074719;28;20293;-68
2022/04/02 07:05:18;;;;;;;17.70;14.23;;;2.00;99.90;;;;;;5074381;28;20680;-68
2022/04/02 07:07:45;;;;;;;18.05;12.30;;;1.90;99.90;;;;;;5074738;28;20202;-68
2022/04/02 07:10:13;;;;;;;16.50;12.60;;;1.70;99.90;;;;;;5074656;28;20318;-68
2022/04/02 07:12:40;;;;;;;16.00;12.50;;;1.80;99.90;;;;;;5074625;28;20688;-68
2022/04/02 07:15:08;;;;;;;17.80;12.65;;;1.80;99.90;;;;;;5074298;28;20229;-68
2022/04/02 07:17:35;;;;;;;18.38;13.50;;;1.70;99.90;;;;;;5074572;28;20303;-69
2022/04/02 07:20:06;;;;;;;17.13;12.30;;;1.80;99.90;;;;;;5074582;28;20227;-69
2022/04/02 07:22:36;;;;;;;15.35;12.07;;;1.90;99.90;;;;;;5074000;28;20214;-68
2022/04/02 07:25:04;;;;;;;15.88;12.00;;;2.00;99.90;;;;;;5074718;28;20198;-68
2022/04/02 07:27:31;;;;;;;19.10;12.80;;;1.90;99.90;;;;;;5074582;28;20636;-69
2022/04/02 07:29:58;;;;;;;18.85;12.60;;;1.80;99.90;;;;;;5074799;28;20230;-68
2022/04/02 07:32:25;;;;;;;17.60;13.25;;;1.80;99.90;;;;;;5074006;28;20207;-68
2022/04/02 07:34:52;;;;;;;17.75;13.77;;;1.70;99.90;;;;;;5073905;28;20309;-68
2022/04/02 07:37:31;;;;;;;20.13;13.25;;;1.50;99.90;;;;;;5074120;28;20202;-68
2022/04/02 07:40:06;;;;;;;20.13;13.75;;;1.60;99.90;;;;;;5073953;28;20776;-68
2022/04/02 07:42:38;;;;;;;18.30;13.45;;;1.80;99.90;;;;;;5073806;28;20743;-68
2022/04/02 07:45:06;;;;;;;15.23;11.50;;;1.70;99.90;;;;;;5073881;28;20206;-68
2022/04/02 07:47:35;;;;;;;17.80;13.25;;;1.70;99.90;;;;;;5073975;28;20203;-68
2022/04/02 07:50:04;;;;;;;16.90;12.20;;;1.50;99.90;;;;;;5073939;28;20222;-68
2022/04/02 07:52:32;;;;;;;16.58;11.85;;;1.40;99.90;;;;;;5073874;28;20203;-68
2022/04/02 07:55:02;;;;;;;19.25;12.52;;;1.40;99.90;;;;;;5073360;28;20227;-68
2022/04/02 07:57:38;;;;;;;19.63;12.80;;;1.50;99.90;;;;;;5073828;28;20209;-68
2022/04/02 08:00:06;;;;;;;16.58;12.35;;;1.70;99.90;;;;;;5073831;28;20233;-68
2022/04/02 08:02:40;;;;;;;16.30;11.40;;;1.70;99.90;;;;;;5073670;28;20219;-68
2022/04/02 08:05:10;;;;;;;18.23;14.32;;;1.50;99.90;;;;;;5073537;28;20256;-68
2022/04/02 08:07:43;;;;;;;16.98;12.00;;;1.40;99.90;;;;;;5073994;28;20625;-68
2022/04/02 08:10:12;;;;;;;18.33;12.50;;;1.30;99.90;;;;;;5073693;28;20573;-68
2022/04/02 08:12:40;;;;;;;16.48;11.80;;;1.50;99.90;;;;;;5073637;28;20199;-68
2022/04/02 08:15:11;;;;;;;18.95;13.80;;;1.50;99.90;;;;;;5073311;28;20692;-68
2022/04/02 08:17:39;;;;;;;16.20;11.50;;;1.40;99.90;;;;;;5073544;28;20209;-68
2022/04/02 08:20:07;;;;;;;18.63;12.48;;;1.30;99.90;;;;;;5073288;28;20696;-68
2022/04/02 08:22:34;;;;;;;15.50;11.80;;;1.30;99.90;;;;;;5073334;28;20202;-68
2022/04/02 08:25:03;;;;;;;16.70;11.68;;;1.40;99.90;;;;;;5073351;28;20206;-68
2022/04/02 08:27:33;;;;;;;16.08;11.25;;;1.50;99.90;;;;;;5073186;28;20220;-68
2022/04/02 08:30:09;;;;;;;15.93;11.82;;;1.60;99.90;;;;;;5073448;28;20275;-68
2022/04/02 08:33:10;;;;;;;15.00;11.32;;;1.60;99.90;;;;;;5073608;28;20213;-68
2022/04/02 08:35:42;;;;;;;15.77;11.30;;;1.40;99.90;;;;;;5077576;28;20222;-68
2022/04/02 08:38:21;;;;;;;19.35;13.68;;;1.50;99.90;;;;;;5077623;28;20212;-68
2022/04/02 08:41:30;;;;;;;16.58;12.05;;;1.60;99.90;;;;;;5077584;28;20209;-68
2022/04/02 08:44:43;;;;;;;17.55;12.20;;;1.60;99.90;;;;;;5077253;28;20237;-68
2022/04/02 08:47:26;;;;;;;19.63;13.55;;;1.70;99.90;;;;;;5077431;28;20567;-68
2022/04/02 08:50:06;;;;;;;19.40;12.30;;;1.70;99.90;;;;;;5077076;28;20221;-68
2022/04/02 08:52:51;;;;;;;16.02;10.93;;;1.70;99.90;;;;;;5077059;28;20207;-68
2022/04/02 08:55:19;;;;;;;17.80;13.05;;;1.60;99.90;;;;;;5076935;28;20275;-68
2022/04/02 08:58:11;;;;;;;19.48;12.93;;;1.60;99.90;;;;;;5077194;28;20213;-68
2022/04/02 09:00:44;;;;;;;17.25;12.20;;;1.70;99.90;;;;;;5077122;28;20226;-68
2022/04/02 09:03:46;;;;;;;16.38;12.70;;;1.90;99.90;;;;;;5076819;28;20207;-69
2022/04/02 09:06:46;;;;;;;15.38;10.82;;;2.00;99.90;;;;;;5077062;28;20571;-68
2022/04/02 09:09:23;;;;;;;18.05;13.43;;;1.90;99.90;;;;;;5052689;28;20219;-68
2022/04/02 09:12:30;;;;;;;18.67;13.18;;;1.70;99.90;;;;;;5076921;28;20265;-68
2022/04/02 09:15:11;;;;;;;18.75;12.48;;;1.60;99.90;;;;;;5076614;28;20244;-68
2022/04/02 09:17:42;;;;;;;18.30;12.75;;;1.40;99.90;;;;;;5076879;28;20554;-68
2022/04/02 09:20:39;;;;;;;18.80;12.30;;;1.40;99.90;;;;;;5076481;28;20227;-68
2022/04/02 09:23:10;;;;;;;18.60;12.98;;;1.40;99.90;;;;;;5076606;28;20542;-68
2022/04/02 09:26:14;;;;;;;17.13;12.40;;;1.50;99.90;;;;;;5076504;28;20660;-68
2022/04/02 09:28:47;;;;;;;20.45;14.25;;;1.60;99.90;;;;;;5050411;28;20241;-68
2022/04/02 09:32:05;;;;;;;20.75;15.00;;;1.80;99.90;;;;;;5076308;28;20719;-68
2022/04/02 09:35:14;;;;;;;22.85;14.85;;;1.80;99.90;;;;;;5075967;28;20661;-68
2022/04/02 09:38:03;;;;;;;23.42;16.83;;;1.70;99.90;;;;;;5076236;28;20203;-68
2022/04/02 09:40:39;;;;;;;21.48;13.48;;;1.50;99.90;;;;;;5076438;28;20237;-68
2022/04/02 09:43:14;;;;;;;20.45;14.10;;;1.30;99.90;;;;;;5076206;28;20214;-68
2022/04/02 09:46:05;;;;;;;18.63;13.65;;;1.30;99.90;;;;;;5075394;28;20198;-68
2022/04/02 09:48:48;;;;;;;19.77;14.25;;;1.40;99.90;;;;;;5076117;28;20207;-68
2022/04/02 09:51:20;;;;;;;19.48;13.48;;;1.50;99.90;;;;;;5075971;28;20183;-68
2022/04/02 09:53:59;;;;;;;19.65;13.20;;;1.70;99.90;;;;;;5075867;28;20218;-68
2022/04/02 09:56:28;;;;;;;20.55;14.02;;;1.80;99.90;;;;;;5075929;28;20710;-68
2022/04/02 09:59:07;;;;;;;20.88;14.13;;;2.00;99.90;;;;;;5075916;28;20222;-68
2022/04/02 10:01:39;;;;;;;23.13;15.50;;;2.10;99.90;;;;;;5075742;28;20202;-68
2022/04/02 10:04:29;;;;;;;18.70;13.00;;;1.70;99.90;;;;;;5075670;28;20225;-68
2022/04/02 10:06:58;;;;;;;22.08;15.18;;;1.60;99.90;;;;;;5075950;28;20199;-68
2022/04/02 10:09:34;;;;;;;22.45;15.02;;;1.60;99.90;;;;;;5075624;28;20229;-68
2022/04/02 10:12:03;;;;;;;25.60;15.60;;;1.70;99.90;;;;;;5075900;28;20218;-68
2022/04/02 10:14:33;;;;;;;24.40;16.83;;;1.80;99.90;;;;;;5075439;28;20198;-68
2022/04/02 10:17:04;;;;;;;23.58;13.77;;;1.90;99.90;;;;;;5075399;28;20230;-68
2022/04/02 10:19:34;;;;;;;20.85;15.40;;;1.90;99.90;;;;;;5075387;28;20685;-68
2022/04/02 10:22:03;;;;;;;23.55;14.95;;;1.80;99.90;;;;;;5075492;28;20237;-68
2022/04/02 10:24:36;;;;;;;22.10;15.52;;;1.80;99.90;;;;;;5075284;28;20584;-68
2022/04/02 10:27:04;;;;;;;19.98;13.73;;;1.70;99.90;;;;;;5075428;28;20210;-69
2022/04/02 10:29:58;;;;;;;21.10;14.98;;;1.60;99.90;;;;;;5075219;28;20252;-68
2022/04/02 10:32:57;;;;;;;18.70;14.55;;;1.80;99.90;;;;;;5075353;28;20674;-68
2022/04/02 10:35:27;;;;;;;21.45;13.32;;;1.80;99.90;;;;;;5013523;28;20267;-68
2022/04/02 10:38:10;;;;;;;20.77;14.13;;;1.80;99.90;;;;;;5062908;28;20217;-68
2022/04/02 10:40:44;;;;;;;21.77;12.98;;;1.90;99.90;;;;;;5073489;28;20233;-68
2022/04/02 10:43:24;;;;;;;19.58;14.23;;;1.90;99.90;;;;;;5074880;28;20206;-68
2022/04/02 10:45:51;;;;;;;19.60;14.40;;;1.90;99.90;;;;;;5074900;28;20189;-68
2022/04/02 10:48:26;;;;;;;21.00;14.75;;;1.70;99.90;;;;;;5075089;28;20313;-68
2022/04/02 10:50:55;;;;;;;22.63;15.35;;;1.60;99.90;;;;;;5075165;28;20574;-68
2022/04/02 10:53:23;;;;;;;18.88;12.85;;;1.60;99.90;;;;;;5074806;28;20214;-68
2022/04/02 10:55:58;;;;;;;21.45;14.95;;;1.60;99.90;;;;;;5074590;28;20575;-68
2022/04/02 10:58:25;;;;;;;18.17;13.27;;;1.70;99.90;;;;;;5074335;28;20697;-68
2022/04/02 11:00:56;;;;;;;20.23;12.40;;;1.70;99.90;;;;;;5074909;28;20295;-68
2022/04/02 11:03:33;;;;;;;19.90;14.18;;;1.50;99.90;;;;;;5074619;28;20203;-68
2022/04/02 11:06:01;;;;;;;21.83;13.52;;;1.50;99.90;;;;;;5074785;28;20203;-68
2022/04/02 11:08:31;;;;;;;19.23;14.20;;;1.40;99.90;;;;;;5074660;28;20213;-68
2022/04/02 11:10:59;;;;;;;22.27;13.60;;;1.50;99.90;;;;;;5075350;28;20233;-68
2022/04/02 11:13:29;;;;;;;20.98;15.15;;;1.40;99.90;;;;;;5074216;28;20211;-68
2022/04/02 11:15:57;;;;;;;19.00;13.80;;;1.40;99.90;;;;;;5074519;28;20229;-68
2022/04/02 11:18:25;;;;;;;20.70;16.10;;;1.40;99.90;;;;;;5074390;28;20668;-68
2022/04/02 11:21:01;;;;;;;22.35;14.63;;;1.60;99.90;;;;;;5074501;28;20207;-68
2022/04/02 11:23:43;;;;;;;17.75;13.30;;;1.50;99.90;;;;;;5074167;28;20214;-69
2022/04/02 11:26:12;;;;;;;22.20;16.73;;;1.70;99.90;;;;;;5074367;28;20556;-68
2022/04/02 11:28:45;;;;;;;22.38;15.73;;;1.90;99.90;;;;;;5074030;28;20230;-68
2022/04/02 11:31:13;;;;;;;21.67;15.98;;;2.00;99.90;;;;;;5074386;28;20241;-68
2022/04/02 11:33:51;;;;;;;22.55;16.35;;;2.20;99.90;;;;;;5073927;28;20554;-68
2022/04/02 11:36:21;;;;;;;23.48;15.93;;;2.20;99.90;;;;;;5073890;28;20280;-68
2022/04/02 11:38:53;;;;;;;22.23;15.70;;;2.40;99.90;;;;;;5073926;28;20701;-68
2022/04/02 11:41:21;;;;;;;21.27;14.63;;;2.70;99.90;;;;;;5074120;28;20191;-68
2022/04/02 11:43:51;;;;;;;19.92;16.00;;;2.90;99.90;;;;;;5073780;28;20584;-68
2022/04/02 11:46:20;;;;;;;23.85;17.15;;;2.50;99.90;;;;;;5073701;28;20692;-68
2022/04/02 11:48:52;;;;;;;22.15;17.05;;;2.20;99.90;;;;;;5074144;28;20253;-68
2022/04/02 11:51:21;;;;;;;22.85;15.80;;;2.10;99.90;;;;;;5073962;28;20206;-68
2022/04/02 11:53:50;;;;;;;24.80;17.10;;;2.00;99.90;;;;;;5073683;28;20206;-68
2022/04/02 11:56:27;;;;;;;23.67;16.95;;;2.00;99.90;;;;;;5073824;28;20576;-68
2022/04/02 11:58:56;;;;;;;23.92;16.50;;;1.70;99.90;;;;;;5073823;28;20218;-68
2022/04/02 12:01:23;;;;;;;21.33;16.45;;;1.70;99.90;;;;;;5073642;28;20209;-68
2022/04/02 12:04:12;;;;;;;21.42;15.57;;;1.70;99.90;;;;;;5073344;28;20203;-68
2022/04/02 12:06:39;;;;;;;23.35;16.60;;;1.80;99.90;;;;;;5073754;28;20203;-68
2022/04/02 12:09:16;;;;;;;20.02;14.60;;;1.70;99.90;;;;;;5073232;28;20226;-68
2022/04/02 12:11:44;;;;;;;25.52;17.40;;;1.70;99.90;;;;;;5073717;28;20202;-68
2022/04/02 12:14:11;;;;;;;26.85;18.73;;;1.90;99.90;;;;;;5073323;28;20209;-68
2022/04/02 12:16:41;;;;;;;24.95;17.42;;;1.70;99.90;;;;;;5073557;28;20634;-68
2022/04/02 12:19:12;;;;;;;27.30;16.90;;;1.80;99.90;;;;;;5073407;28;20240;-68
2022/04/02 12:21:43;;;;;;;27.08;17.50;;;2.00;99.90;;;;;;5073627;28;20281;-68
2022/04/02 12:24:12;;;;;;;26.73;17.23;;;2.10;99.90;;;;;;5073456;28;20209;-68
2022/04/02 12:26:40;;;;;;;23.63;17.42;;;2.30;99.90;;;;;;5073356;28;20201;-68
2022/04/02 12:29:07;;;;;;;23.95;18.67;;;2.40;99.90;;;;;;5073229;28;20231;-68
2022/04/02 12:31:35;;;;;;;25.48;17.25;;;2.40;99.90;;;;;;5073250;28;20743;-68
2022/04/02 12:34:03;;;;;;;23.88;17.45;;;2.30;99.90;;;;;;5073161;28;20234;-69
2022/04/02 12:36:32;;;;;;;23.98;18.15;;;2.40;99.90;;;;;;5073167;28;20223;-68
2022/04/02 12:39:01;;;;;;;22.63;16.08;;;2.40;99.90;;;;;;5073573;28;20313;-68
2022/04/02 12:41:29;;;;;;;27.42;18.92;;;2.20;99.90;;;;;;5073465;28;20206;-68
2022/04/02 12:44:03;;;;;;;23.55;18.08;;;2.10;99.90;;;;;;5073114;28;20207;-68
2022/04/02 12:46:30;;;;;;;24.38;17.35;;;2.20;99.90;;;;;;5073277;28;20205;-68
2022/04/02 12:48:58;;;;;;;27.73;18.27;;;2.10;99.90;;;;;;5073312;28;20225;-68
2022/04/02 12:51:26;;;;;;;28.20;19.05;;;2.20;99.90;;;;;;5073324;28;20290;-68
2022/04/02 12:53:59;;;;;;;28.20;19.73;;;2.30;99.90;;;;;;5073009;28;20232;-68
2022/04/02 12:56:28;;;;;;;26.00;17.55;;;2.30;99.90;;;;;;5073206;28;20215;-68
2022/04/02 12:58:56;;;;;;;24.88;17.45;;;2.30;99.90;;;;;;5073010;28;20219;-68